Time;durP1;ratioP1;P1;durP2;ratioP2;P2;SDS_P1;SDS_P2;PMS_P1;PMS_P2;Temp;Humidity;BMP_temperature;BMP_pressure;BME280_temperature;BME280_humidity;BME280_pressure;Samples;Min_cycle;Max_cycle;Signal;HPM_P1;HPM_P2
2023/01/07 00:02:10;;;;;;;3.40;2.93;;;13.20;99.90;;;;;;5068191;28;20206;-32
2023/01/07 00:04:40;;;;;;;3.80;2.30;;;13.20;99.90;;;;;;5067923;28;20219;-31
2023/01/07 00:07:07;;;;;;;4.13;2.33;;;13.20;99.90;;;;;;5068392;28;20223;-32
2023/01/07 00:09:42;;;;;;;3.73;2.60;;;13.20;99.90;;;;;;5068162;28;20202;-32
2023/01/07 00:12:11;;;;;;;2.57;2.30;;;13.20;99.90;;;;;;5066843;28;20230;-32
2023/01/07 00:14:41;;;;;;;3.70;2.60;;;13.10;99.90;;;;;;5068281;28;20211;-32
2023/01/07 00:17:10;;;;;;;3.23;2.30;;;13.20;99.90;;;;;;5067945;28;20199;-32
2023/01/07 00:19:39;;;;;;;5.40;2.70;;;13.20;99.90;;;;;;5068485;28;20227;-32
2023/01/07 00:22:06;;;;;;;6.47;2.50;;;13.20;99.90;;;;;;5067669;28;20207;-32
2023/01/07 00:24:36;;;;;;;2.57;2.27;;;13.20;99.90;;;;;;5067610;28;20191;-32
2023/01/07 00:27:03;;;;;;;3.43;2.40;;;13.20;99.90;;;;;;5066120;28;20607;-32
2023/01/07 00:29:32;;;;;;;3.60;2.53;;;13.20;99.90;;;;;;5067761;28;20678;-32
2023/01/07 00:32:04;;;;;;;4.20;2.63;;;13.20;99.90;;;;;;5068026;28;20621;-32
2023/01/07 00:34:37;;;;;;;3.53;2.60;;;13.20;99.90;;;;;;5067743;28;20196;-32
2023/01/07 00:37:48;;;;;;;3.07;2.27;;;13.10;99.90;;;;;;5066328;28;20322;-32
2023/01/07 00:40:04;;;;;;;5.07;2.40;;;13.10;99.90;;;;;;5067721;28;20314;-31
2023/01/07 00:45:20;;;;;;;5.03;2.77;;;13.10;99.90;;;;;;5066377;28;20314;-32
2023/01/07 00:47:47;;;;;;;4.47;2.30;;;13.10;99.90;;;;;;5066904;28;20473;-32
2023/01/07 00:50:19;;;;;;;3.80;2.47;;;13.10;99.90;;;;;;5067494;28;20196;-32
2023/01/07 00:52:47;;;;;;;4.63;2.47;;;13.10;99.90;;;;;;5067390;28;20257;-32
2023/01/07 00:55:14;;;;;;;3.37;2.50;;;13.00;99.90;;;;;;5066028;28;20203;-31
2023/01/07 00:57:45;;;;;;;3.10;2.30;;;13.00;99.90;;;;;;5065662;28;20208;-32
2023/01/07 01:00:14;;;;;;;6.53;3.00;;;13.00;99.90;;;;;;5065765;28;20240;-32
2023/01/07 01:02:44;;;;;;;5.87;2.50;;;13.00;99.90;;;;;;5067470;28;20243;-32
2023/01/07 01:05:15;;;;;;;4.53;2.57;;;13.00;99.90;;;;;;5066835;28;20297;-32
2023/01/07 01:07:43;;;;;;;3.13;2.73;;;13.00;99.90;;;;;;5067381;28;20292;-32
2023/01/07 01:10:13;;;;;;;5.40;2.77;;;13.10;99.90;;;;;;5066857;28;20196;-32
2023/01/07 01:12:40;;;;;;;5.47;2.50;;;13.10;99.90;;;;;;5065605;28;20781;-30
2023/01/07 01:15:13;;;;;;;3.00;2.50;;;13.00;99.90;;;;;;5066667;28;20199;-30
2023/01/07 01:17:40;;;;;;;4.40;2.30;;;13.00;99.90;;;;;;5067036;28;20249;-30
2023/01/07 01:20:11;;;;;;;3.10;2.33;;;13.00;99.90;;;;;;5066796;28;20722;-30
2023/01/07 01:22:38;;;;;;;3.77;2.57;;;13.00;99.90;;;;;;5066964;28;20203;-30
2023/01/07 01:25:09;;;;;;;3.03;2.73;;;13.00;99.90;;;;;;5065822;28;20314;-30
2023/01/07 01:27:37;;;;;;;4.30;2.30;;;13.00;99.90;;;;;;5066496;28;20290;-30
2023/01/07 01:30:07;;;;;;;3.83;2.00;;;13.00;99.90;;;;;;5067200;28;20621;-30
2023/01/07 01:32:36;;;;;;;4.47;2.57;;;13.00;99.90;;;;;;5066545;28;20223;-30
2023/01/07 01:35:04;;;;;;;2.97;2.30;;;13.00;99.90;;;;;;5066440;28;20279;-30
2023/01/07 01:37:34;;;;;;;3.27;2.40;;;13.00;99.90;;;;;;5064715;28;20357;-29
2023/01/07 01:40:07;;;;;;;3.67;2.50;;;13.00;99.90;;;;;;5066392;28;20667;-30
2023/01/07 01:42:34;;;;;;;3.17;1.90;;;13.00;99.90;;;;;;5066658;28;20242;-30
2023/01/07 01:45:02;;;;;;;3.30;2.23;;;13.00;99.90;;;;;;5066664;28;20269;-30
2023/01/07 01:47:36;;;;;;;3.50;2.17;;;13.00;99.90;;;;;;5065150;28;20314;-30
2023/01/07 01:50:21;;;;;;;3.93;2.00;;;13.00;99.90;;;;;;5067027;28;20211;-30
2023/01/07 01:53:03;;;;;;;6.37;2.40;;;13.00;99.90;;;;;;5066284;28;20336;-30
2023/01/07 01:55:37;;;;;;;3.33;2.30;;;13.00;99.90;;;;;;5065937;28;20302;-30
2023/01/07 01:58:12;;;;;;;3.20;2.10;;;13.00;99.90;;;;;;5061640;28;20553;-30
2023/01/07 02:00:42;;;;;;;4.87;2.03;;;13.00;99.90;;;;;;5046079;28;20639;-30
2023/01/07 02:03:17;;;;;;;2.87;2.10;;;13.00;99.90;;;;;;5046413;28;20247;-30
2023/01/07 02:05:46;;;;;;;6.40;2.60;;;13.00;99.90;;;;;;5046002;28;20306;-30
2023/01/07 02:08:20;;;;;;;3.47;2.33;;;13.00;99.90;;;;;;5045768;28;20204;-30
2023/01/07 02:11:04;;;;;;;3.37;2.00;;;13.00;99.90;;;;;;5046201;28;20704;-30
2023/01/07 02:13:54;;;;;;;3.60;2.23;;;13.00;99.90;;;;;;5045408;28;20763;-30
2023/01/07 02:16:27;;;;;;;4.27;2.50;;;13.00;99.90;;;;;;5045893;28;20228;-30
2023/01/07 02:18:57;;;;;;;6.10;2.70;;;13.00;99.90;;;;;;5046089;28;20204;-30
2023/01/07 02:21:55;;;;;;;5.83;2.80;;;13.00;99.90;;;;;;5045652;28;20196;-30
2023/01/07 02:24:41;;;;;;;4.47;3.10;;;13.10;99.90;;;;;;5045812;28;20306;-30
2023/01/07 02:27:28;;;;;;;9.80;3.30;;;13.00;99.90;;;;;;5045827;28;20283;-30
2023/01/07 02:30:16;;;;;;;5.20;3.20;;;13.00;99.90;;;;;;5045886;28;20207;-30
2023/01/07 02:32:55;;;;;;;7.07;3.03;;;13.00;99.90;;;;;;5043915;28;20640;-30
2023/01/07 02:35:57;;;;;;;8.37;3.20;;;13.00;99.90;;;;;;5044440;28;20281;-30
2023/01/07 02:39:02;;;;;;;6.20;2.40;;;13.00;99.90;;;;;;5055182;28;20600;-30
2023/01/07 02:41:57;;;;;;;7.03;2.90;;;13.10;99.90;;;;;;5053808;28;20228;-30
2023/01/07 02:44:58;;;;;;;5.60;2.93;;;13.10;99.90;;;;;;5046072;28;20258;-30
2023/01/07 02:47:38;;;;;;;4.40;2.53;;;13.10;99.90;;;;;;5054050;28;20760;-30
2023/01/07 02:50:10;;;;;;;3.50;2.60;;;13.10;99.90;;;;;;5044654;28;20295;-30
2023/01/07 02:52:39;;;;;;;3.00;2.00;;;13.10;99.90;;;;;;5045441;28;20263;-30
2023/01/07 02:55:16;;;;;;;3.87;2.30;;;13.10;99.90;;;;;;5045731;28;20362;-30
2023/01/07 02:57:55;;;;;;;3.53;2.17;;;13.10;99.90;;;;;;5046237;28;20594;-30
2023/01/07 03:00:59;;;;;;;4.73;2.50;;;13.10;99.90;;;;;;5045562;28;20242;-30
2023/01/07 03:03:41;;;;;;;3.33;2.40;;;13.10;99.90;;;;;;5046344;28;20196;-30
2023/01/07 03:06:23;;;;;;;2.33;1.90;;;13.10;99.90;;;;;;5044217;28;20208;-30
2023/01/07 03:09:24;;;;;;;2.67;1.93;;;13.10;99.90;;;;;;5048902;28;20287;-30
2023/01/07 03:12:10;;;;;;;4.50;2.00;;;13.20;99.90;;;;;;5049149;28;20225;-31
2023/01/07 03:14:50;;;;;;;3.07;2.07;;;13.10;99.90;;;;;;5049053;28;20297;-30
2023/01/07 03:17:24;;;;;;;2.73;1.90;;;13.20;99.90;;;;;;5048903;28;20291;-30
2023/01/07 03:19:58;;;;;;;2.27;1.87;;;13.10;99.90;;;;;;5048827;28;20282;-30
2023/01/07 03:22:29;;;;;;;2.73;1.90;;;13.10;99.90;;;;;;5049042;28;20208;-30
2023/01/07 03:24:58;;;;;;;2.83;2.10;;;13.10;99.90;;;;;;5047475;28;20730;-30
2023/01/07 03:27:33;;;;;;;3.10;1.80;;;13.20;99.90;;;;;;5049493;28;20577;-30
2023/01/07 03:30:05;;;;;;;2.73;1.77;;;13.20;99.90;;;;;;5049305;28;20308;-30
2023/01/07 03:32:42;;;;;;;3.23;1.70;;;13.20;99.90;;;;;;5047386;28;20306;-30
2023/01/07 03:35:09;;;;;;;2.10;1.67;;;13.10;99.90;;;;;;5047264;28;20650;-30
2023/01/07 03:37:44;;;;;;;2.47;1.70;;;13.10;99.90;;;;;;5048475;28;20211;-30
2023/01/07 03:40:14;;;;;;;3.10;1.83;;;13.20;99.90;;;;;;5048926;28;20200;-30
2023/01/07 03:42:47;;;;;;;2.27;1.50;;;13.10;99.90;;;;;;5049400;28;20188;-30
2023/01/07 03:45:20;;;;;;;2.87;1.67;;;13.10;99.90;;;;;;5048792;28;20204;-30
2023/01/07 03:47:53;;;;;;;2.50;1.60;;;13.10;99.90;;;;;;5048819;28;20196;-30
2023/01/07 03:50:21;;;;;;;5.47;1.93;;;13.10;99.90;;;;;;5046756;28;20551;-30
2023/01/07 03:52:51;;;;;;;3.13;1.80;;;13.10;99.90;;;;;;5047912;28;20322;-30
2023/01/07 03:55:21;;;;;;;2.47;1.60;;;13.00;99.90;;;;;;5048100;28;20215;-30
2023/01/07 03:57:55;;;;;;;3.80;1.50;;;13.00;99.90;;;;;;5048395;28;20208;-30
2023/01/07 04:00:25;;;;;;;3.63;1.90;;;13.00;99.90;;;;;;5047044;28;20208;-30
2023/01/07 04:02:52;;;;;;;2.37;1.50;;;13.00;99.90;;;;;;5048739;28;20336;-30
2023/01/07 04:05:19;;;;;;;3.03;1.40;;;13.00;99.90;;;;;;5047950;28;20754;-30
2023/01/07 04:07:50;;;;;;;1.70;1.50;;;12.90;99.90;;;;;;5048697;28;20204;-30
2023/01/07 04:10:18;;;;;;;2.60;1.60;;;12.90;99.90;;;;;;5048369;28;20251;-30
2023/01/07 04:12:45;;;;;;;3.63;1.60;;;12.90;99.90;;;;;;5048223;28;20303;-30
2023/01/07 04:15:12;;;;;;;3.30;1.67;;;12.90;99.90;;;;;;5046469;28;20224;-30
2023/01/07 04:17:44;;;;;;;2.43;1.47;;;12.90;99.90;;;;;;5047669;28;20193;-30
2023/01/07 04:20:11;;;;;;;1.80;1.47;;;12.80;99.90;;;;;;5048467;28;20302;-30
2023/01/07 04:22:38;;;;;;;2.77;1.57;;;12.80;99.90;;;;;;5047582;28;20201;-30
2023/01/07 04:25:06;;;;;;;4.10;1.90;;;12.80;99.90;;;;;;5048120;28;20289;-30
2023/01/07 04:27:33;;;;;;;3.47;1.30;;;12.70;99.90;;;;;;5046353;28;20215;-30
2023/01/07 04:30:03;;;;;;;1.20;1.10;;;12.70;99.90;;;;;;5047579;28;20230;-30
2023/01/07 04:32:33;;;;;;;3.60;1.30;;;12.70;99.90;;;;;;5047602;28;20206;-30
2023/01/07 04:35:06;;;;;;;3.27;1.40;;;12.60;99.90;;;;;;5047662;28;20299;-30
2023/01/07 04:37:37;;;;;;;2.10;1.20;;;12.60;99.90;;;;;;5048189;28;20212;-30
2023/01/07 04:40:05;;;;;;;1.77;1.17;;;12.60;99.90;;;;;;5047684;28;20315;-30
2023/01/07 04:42:34;;;;;;;2.33;1.20;;;12.60;99.90;;;;;;5047686;28;20192;-30
2023/01/07 04:45:02;;;;;;;1.63;1.13;;;12.60;99.90;;;;;;5047421;28;20277;-30
2023/01/07 04:47:31;;;;;;;2.80;1.20;;;12.60;99.90;;;;;;5045911;28;20212;-30
2023/01/07 04:49:58;;;;;;;1.57;1.10;;;12.50;99.90;;;;;;5047296;28;20261;-30
2023/01/07 04:52:30;;;;;;;2.90;1.20;;;12.50;99.90;;;;;;5045786;28;20232;-30
2023/01/07 04:55:00;;;;;;;1.77;1.10;;;12.50;99.90;;;;;;5045913;28;20270;-30
2023/01/07 04:57:27;;;;;;;2.07;1.07;;;12.50;99.90;;;;;;5047113;28;20969;-30
2023/01/07 04:59:55;;;;;;;3.10;1.23;;;12.50;99.90;;;;;;5047352;28;20197;-30
2023/01/07 05:02:26;;;;;;;1.37;1.17;;;12.50;99.90;;;;;;5045596;28;20922;-30
2023/01/07 05:04:53;;;;;;;2.63;1.40;;;12.50;99.90;;;;;;5046947;28;20192;-30
2023/01/07 05:07:23;;;;;;;1.80;1.27;;;12.50;99.90;;;;;;5045492;28;20425;-30
2023/01/07 05:09:53;;;;;;;1.83;1.10;;;12.50;99.90;;;;;;5047208;28;20242;-30
2023/01/07 05:12:20;;;;;;;1.90;1.00;;;12.60;99.90;;;;;;5046999;28;20216;-30
2023/01/07 05:14:47;;;;;;;2.60;1.00;;;12.50;99.90;;;;;;5046917;28;20694;-30
2023/01/07 05:17:14;;;;;;;1.83;1.30;;;12.60;99.90;;;;;;5046863;28;20192;-30
2023/01/07 05:19:44;;;;;;;1.53;1.10;;;12.50;99.90;;;;;;5046715;28;20228;-30
2023/01/07 05:22:11;;;;;;;2.90;1.20;;;12.60;99.90;;;;;;5045316;28;20204;-30
2023/01/07 05:24:38;;;;;;;2.00;1.00;;;12.50;99.90;;;;;;5046673;28;20250;-30
2023/01/07 05:27:06;;;;;;;2.73;1.33;;;12.60;99.90;;;;;;5045555;28;20739;-30
2023/01/07 05:29:35;;;;;;;1.60;1.00;;;12.60;99.90;;;;;;5046912;28;20220;-30
2023/01/07 05:32:03;;;;;;;1.57;1.10;;;12.60;99.90;;;;;;5046685;28;20251;-30
2023/01/07 05:34:35;;;;;;;3.00;1.40;;;12.60;99.90;;;;;;5045445;28;20317;-30
2023/01/07 05:37:02;;;;;;;1.43;0.80;;;12.60;99.90;;;;;;5046467;28;20801;-30
2023/01/07 05:39:32;;;;;;;1.30;1.17;;;12.60;99.90;;;;;;5046203;28;20228;-30
2023/01/07 05:42:01;;;;;;;1.60;0.90;;;12.60;99.90;;;;;;5045255;28;20287;-30
2023/01/07 05:44:35;;;;;;;1.33;1.03;;;12.60;99.90;;;;;;5046320;28;20209;-30
2023/01/07 05:47:07;;;;;;;1.93;1.00;;;12.60;99.90;;;;;;5046610;28;20721;-30
2023/01/07 05:49:34;;;;;;;1.80;0.80;;;12.60;99.90;;;;;;5046433;28;20262;-30
2023/01/07 05:52:04;;;;;;;1.87;0.90;;;12.60;99.90;;;;;;5046068;28;20259;-30
2023/01/07 05:54:33;;;;;;;2.63;1.20;;;12.50;99.90;;;;;;5046339;28;20690;-30
2023/01/07 05:57:05;;;;;;;1.40;1.00;;;12.50;99.90;;;;;;5046532;28;20223;-30
2023/01/07 05:59:35;;;;;;;2.20;1.00;;;12.50;99.90;;;;;;5046567;28;20306;-30
2023/01/07 06:02:02;;;;;;;1.23;0.97;;;12.60;99.90;;;;;;5046371;28;20757;-30
2023/01/07 06:04:33;;;;;;;1.87;0.93;;;12.50;99.90;;;;;;5045899;28;20790;-30
2023/01/07 06:07:05;;;;;;;1.30;1.07;;;12.50;99.90;;;;;;5046094;28;20674;-30
2023/01/07 06:09:37;;;;;;;0.93;0.80;;;12.50;99.90;;;;;;5046721;28;20295;-30
2023/01/07 06:12:07;;;;;;;2.83;1.10;;;12.50;99.90;;;;;;5046087;28;20687;-29
2023/01/07 06:14:34;;;;;;;1.33;1.00;;;12.50;99.90;;;;;;5046577;28;20227;-30
2023/01/07 06:17:03;;;;;;;2.00;0.90;;;12.50;99.90;;;;;;5046206;28;20768;-30
2023/01/07 06:19:33;;;;;;;1.47;1.10;;;12.40;99.90;;;;;;5045962;28;20200;-30
2023/01/07 06:22:02;;;;;;;1.43;1.00;;;12.40;99.90;;;;;;5046235;28;20209;-30
2023/01/07 06:24:30;;;;;;;1.70;0.90;;;12.40;99.90;;;;;;5046004;28;20208;-30
2023/01/07 06:26:57;;;;;;;2.10;1.10;;;12.40;99.90;;;;;;5046470;28;20201;-30
2023/01/07 06:29:24;;;;;;;1.07;0.83;;;12.40;99.90;;;;;;5045991;28;20299;-30
2023/01/07 06:31:51;;;;;;;1.00;0.80;;;12.40;99.90;;;;;;5045848;28;20683;-30
2023/01/07 06:34:18;;;;;;;1.60;0.90;;;12.40;99.90;;;;;;5045854;28;20252;-30
2023/01/07 06:36:45;;;;;;;0.73;0.70;;;12.40;99.90;;;;;;5046006;28;20204;-30
2023/01/07 06:39:13;;;;;;;1.83;1.00;;;12.50;99.90;;;;;;5046153;28;20220;-30
2023/01/07 06:41:40;;;;;;;2.07;1.00;;;12.40;99.90;;;;;;5046391;28;20662;-30
2023/01/07 06:44:10;;;;;;;1.00;0.80;;;12.50;99.90;;;;;;5049568;28;20238;-30
2023/01/07 06:46:40;;;;;;;1.37;0.80;;;12.50;99.90;;;;;;5049589;28;20200;-30
2023/01/07 06:49:07;;;;;;;1.60;0.93;;;12.50;99.90;;;;;;5050244;28;20208;-30
2023/01/07 06:51:34;;;;;;;3.33;0.80;;;12.50;99.90;;;;;;5049451;28;20246;-30
2023/01/07 06:54:06;;;;;;;1.07;0.97;;;12.50;99.90;;;;;;5049493;28;20216;-30
2023/01/07 06:56:38;;;;;;;1.53;1.10;;;12.50;99.90;;;;;;5049823;28;20246;-30
2023/01/07 06:59:07;;;;;;;1.73;0.90;;;12.50;99.90;;;;;;5048051;28;20196;-30
2023/01/07 07:01:34;;;;;;;1.83;0.90;;;12.50;99.90;;;;;;5049366;28;20200;-30
2023/01/07 07:04:02;;;;;;;0.93;0.70;;;12.50;99.90;;;;;;5049247;28;20786;-30
2023/01/07 07:06:31;;;;;;;2.37;0.93;;;12.50;99.90;;;;;;5049730;28;20200;-30
2023/01/07 07:08:59;;;;;;;1.90;0.90;;;12.50;99.90;;;;;;5049758;28;20727;-30
2023/01/07 07:11:28;;;;;;;1.40;0.90;;;12.50;99.90;;;;;;5049380;28;20235;-30
2023/01/07 07:13:56;;;;;;;1.60;0.90;;;12.50;99.90;;;;;;5049198;28;20736;-31
2023/01/07 07:16:23;;;;;;;1.00;0.90;;;12.50;99.90;;;;;;5047849;28;20192;-30
2023/01/07 07:18:54;;;;;;;1.17;1.00;;;12.50;99.90;;;;;;5049276;28;20299;-30
2023/01/07 07:21:23;;;;;;;1.20;1.10;;;12.50;99.90;;;;;;5048675;28;20224;-30
2023/01/07 07:23:53;;;;;;;2.00;0.87;;;12.60;99.90;;;;;;5047028;28;20303;-30
2023/01/07 07:26:20;;;;;;;1.63;0.90;;;12.60;99.90;;;;;;5046993;28;20212;-30
2023/01/07 07:28:47;;;;;;;1.43;1.00;;;12.60;99.90;;;;;;5048788;28;20196;-30
2023/01/07 07:31:15;;;;;;;0.80;0.80;;;12.60;99.90;;;;;;5048628;28;20200;-30
2023/01/07 07:33:44;;;;;;;1.03;0.70;;;12.60;99.90;;;;;;5046916;28;20686;-30
2023/01/07 07:36:14;;;;;;;1.00;0.90;;;12.60;99.90;;;;;;5048020;28;20200;-30
2023/01/07 07:38:41;;;;;;;1.07;0.90;;;12.60;99.90;;;;;;5047061;28;20262;-30
2023/01/07 07:41:08;;;;;;;1.10;0.97;;;12.60;99.90;;;;;;5046626;28;20738;-30
2023/01/07 07:43:42;;;;;;;3.70;1.00;;;12.60;99.90;;;;;;5048028;28;20235;-30
2023/01/07 07:46:12;;;;;;;2.13;1.30;;;12.60;99.90;;;;;;5048048;28;20250;-30
2023/01/07 07:48:44;;;;;;;1.50;1.10;;;12.60;99.90;;;;;;5047783;28;20678;-30
2023/01/07 07:51:11;;;;;;;1.67;1.10;;;12.60;99.90;;;;;;5047948;28;20196;-30
2023/01/07 07:53:38;;;;;;;2.33;1.10;;;12.60;99.90;;;;;;5047259;28;20208;-30
2023/01/07 07:56:08;;;;;;;1.40;1.20;;;12.60;99.90;;;;;;5047785;28;20702;-30
2023/01/07 07:58:35;;;;;;;3.53;1.23;;;12.70;99.90;;;;;;5048038;28;20302;-30
2023/01/07 08:01:10;;;;;;;1.73;1.27;;;12.70;99.90;;;;;;5047636;28;20200;-30
2023/01/07 08:03:42;;;;;;;2.60;1.23;;;12.70;99.90;;;;;;5047701;28;20247;-30
2023/01/07 08:06:11;;;;;;;3.23;1.60;;;12.70;99.90;;;;;;5047599;28;20211;-30
2023/01/07 08:08:39;;;;;;;2.33;1.33;;;12.70;99.90;;;;;;5048579;28;20201;-30
2023/01/07 08:11:06;;;;;;;1.70;1.30;;;12.70;99.90;;;;;;5046915;28;20292;-30
2023/01/07 08:13:33;;;;;;;1.80;1.40;;;12.70;99.90;;;;;;5047798;28;20307;-30
2023/01/07 08:16:03;;;;;;;1.40;1.20;;;12.70;99.90;;;;;;5046346;28;20722;-30
2023/01/07 08:18:32;;;;;;;1.60;1.30;;;12.70;99.90;;;;;;5048548;28;20216;-30
2023/01/07 08:21:02;;;;;;;1.30;1.20;;;12.70;99.90;;;;;;5048521;28;20573;-30
2023/01/07 08:23:30;;;;;;;1.50;1.20;;;12.70;99.90;;;;;;5046203;28;20212;-29
2023/01/07 08:26:06;;;;;;;3.03;1.40;;;12.80;99.90;;;;;;5047610;28;20773;-29
2023/01/07 08:28:33;;;;;;;4.83;1.33;;;12.80;99.90;;;;;;5047842;28;20204;-30
2023/01/07 08:31:02;;;;;;;1.37;1.27;;;12.80;99.90;;;;;;5047855;28;20212;-30
2023/01/07 08:33:36;;;;;;;2.10;1.10;;;12.80;99.90;;;;;;5046013;28;20212;-29
2023/01/07 08:36:08;;;;;;;2.93;1.27;;;12.80;99.90;;;;;;5029923;28;20596;-29
2023/01/07 08:38:51;;;;;;;1.37;1.00;;;12.80;99.90;;;;;;5046851;28;20204;-29
2023/01/07 08:41:22;;;;;;;2.63;1.47;;;12.80;99.90;;;;;;5047199;28;20289;-29
2023/01/07 08:43:52;;;;;;;1.83;1.30;;;12.80;99.90;;;;;;5047263;28;20204;-29
2023/01/07 08:46:22;;;;;;;2.60;1.40;;;12.80;99.90;;;;;;5047442;28;20236;-29
2023/01/07 08:48:51;;;;;;;2.63;1.10;;;12.80;99.90;;;;;;5047059;28;20756;-29
2023/01/07 08:51:18;;;;;;;2.40;1.30;;;12.80;99.90;;;;;;5045061;28;20268;-29
2023/01/07 08:53:46;;;;;;;1.67;1.30;;;12.80;99.90;;;;;;5047081;28;20757;-29
2023/01/07 08:56:13;;;;;;;2.00;1.43;;;12.90;99.90;;;;;;5045769;28;20219;-29
2023/01/07 08:58:42;;;;;;;1.30;1.17;;;12.90;99.90;;;;;;5045890;28;20288;-29
2023/01/07 09:01:09;;;;;;;2.57;1.40;;;12.90;99.90;;;;;;5046913;28;20283;-30
2023/01/07 09:03:37;;;;;;;5.33;1.20;;;12.90;99.90;;;;;;5046876;28;20203;-29
2023/01/07 09:06:07;;;;;;;2.23;1.30;;;12.90;99.90;;;;;;5046428;28;20220;-29
2023/01/07 09:08:37;;;;;;;1.80;1.10;;;12.90;99.90;;;;;;5046914;28;20589;-29
2023/01/07 09:11:04;;;;;;;2.33;1.27;;;12.90;99.90;;;;;;5045727;28;21210;-29
2023/01/07 09:13:34;;;;;;;1.87;1.10;;;12.90;99.90;;;;;;5046995;28;20286;-29
2023/01/07 09:16:01;;;;;;;3.30;1.20;;;12.90;99.90;;;;;;5046641;28;20710;-29
2023/01/07 09:18:28;;;;;;;1.47;1.00;;;12.90;99.90;;;;;;5046687;28;20815;-29
2023/01/07 09:21:00;;;;;;;1.40;1.07;;;12.90;99.90;;;;;;5045699;28;20287;-30
2023/01/07 09:23:27;;;;;;;0.93;0.83;;;12.90;99.90;;;;;;5045264;28;20383;-29
2023/01/07 09:25:55;;;;;;;1.47;1.10;;;12.90;99.90;;;;;;5046886;28;20214;-30
2023/01/07 09:28:24;;;;;;;1.13;0.90;;;12.90;99.90;;;;;;5046877;28;20215;-30
2023/01/07 09:30:51;;;;;;;2.33;0.90;;;12.90;99.90;;;;;;5045404;28;20208;-30
2023/01/07 09:33:23;;;;;;;1.13;0.90;;;12.90;99.90;;;;;;5046853;28;20637;-30
2023/01/07 09:35:53;;;;;;;0.97;0.87;;;12.90;99.90;;;;;;5046416;28;20224;-30
2023/01/07 09:38:20;;;;;;;1.10;0.90;;;12.90;99.90;;;;;;5046348;28;20629;-30
2023/01/07 09:40:48;;;;;;;1.23;0.90;;;12.90;99.90;;;;;;5046275;28;20220;-30
2023/01/07 09:43:24;;;;;;;2.57;0.87;;;12.90;99.90;;;;;;5046250;28;20524;-30
2023/01/07 09:46:14;;;;;;;1.60;0.87;;;12.90;99.90;;;;;;5046353;28;20206;-30
2023/01/07 09:48:50;;;;;;;2.93;0.90;;;12.90;99.90;;;;;;5046321;28;20699;-30
2023/01/07 09:51:24;;;;;;;1.60;1.00;;;12.90;99.90;;;;;;5046408;28;20278;-30
2023/01/07 09:53:55;;;;;;;1.23;0.90;;;12.90;99.90;;;;;;5046143;28;20760;-30
2023/01/07 09:56:33;;;;;;;0.90;0.63;;;12.90;99.90;;;;;;5046327;28;20722;-30
2023/01/07 09:59:04;;;;;;;1.07;0.97;;;12.80;99.90;;;;;;5045909;28;20315;-30
2023/01/07 10:01:49;;;;;;;0.80;0.80;;;12.80;99.90;;;;;;5044187;28;20666;-30
2023/01/07 10:04:33;;;;;;;1.10;0.70;;;12.90;99.90;;;;;;5044106;28;20208;-30
2023/01/07 10:07:04;;;;;;;2.53;1.07;;;12.90;99.90;;;;;;5045781;28;20254;-30
2023/01/07 10:09:35;;;;;;;1.60;0.80;;;12.90;99.90;;;;;;5044309;28;20203;-30
2023/01/07 10:12:40;;;;;;;1.23;0.90;;;12.80;99.90;;;;;;5045826;28;20577;-30
2023/01/07 10:15:16;;;;;;;1.03;0.80;;;12.80;99.90;;;;;;5054311;28;20227;-30
2023/01/07 10:18:05;;;;;;;1.60;0.77;;;12.80;99.90;;;;;;5049809;28;20599;-30
2023/01/07 10:20:42;;;;;;;1.20;0.90;;;12.80;99.90;;;;;;5048020;28;20196;-30
2023/01/07 10:23:13;;;;;;;2.20;0.80;;;12.90;99.90;;;;;;5049570;28;20261;-30
2023/01/07 10:25:49;;;;;;;2.47;1.30;;;12.90;99.90;;;;;;5049613;28;20703;-30
2023/01/07 10:28:24;;;;;;;7.27;1.60;;;12.90;99.90;;;;;;5049266;28;20259;-30
2023/01/07 10:30:56;;;;;;;1.40;0.93;;;12.90;99.90;;;;;;5049817;28;20306;-30
2023/01/07 10:33:28;;;;;;;1.93;1.33;;;12.90;99.90;;;;;;5047775;28;20212;-30
2023/01/07 10:36:22;;;;;;;1.73;1.37;;;12.90;99.90;;;;;;5049572;28;20266;-30
2023/01/07 10:39:33;;;;;;;2.30;1.27;;;12.90;99.90;;;;;;5049027;28;20816;-30
2023/01/07 10:42:23;;;;;;;2.23;1.40;;;12.90;99.90;;;;;;5049344;28;20220;-30
2023/01/07 10:45:31;;;;;;;1.80;1.20;;;13.00;99.90;;;;;;5049629;28;20200;-30
2023/01/07 10:48:30;;;;;;;1.67;1.27;;;12.90;99.90;;;;;;5066116;28;20776;-31
2023/01/07 10:51:22;;;;;;;1.00;0.90;;;12.90;99.90;;;;;;5046087;28;20264;-30
2023/01/07 10:54:04;;;;;;;1.30;1.20;;;13.00;99.90;;;;;;5048995;28;20200;-30
2023/01/07 10:56:49;;;;;;;1.17;1.07;;;12.90;99.90;;;;;;5048858;28;20223;-32
2023/01/07 10:59:21;;;;;;;1.17;0.97;;;13.00;99.90;;;;;;5049054;28;20203;-32
2023/01/07 11:01:56;;;;;;;1.27;1.00;;;13.00;99.90;;;;;;5049334;28;20590;-32
2023/01/07 11:04:26;;;;;;;1.30;1.20;;;13.00;99.90;;;;;;5047316;28;20697;-32
2023/01/07 11:07:06;;;;;;;1.10;1.00;;;13.00;99.90;;;;;;5048991;28;20591;-32
2023/01/07 11:09:41;;;;;;;1.83;1.20;;;13.00;99.90;;;;;;5048856;28;20212;-32
2023/01/07 11:12:32;;;;;;;1.27;1.17;;;13.00;99.90;;;;;;5048765;28;20196;-32
2023/01/07 11:15:06;;;;;;;1.13;1.00;;;13.00;99.90;;;;;;5048343;28;20200;-32
2023/01/07 11:17:55;;;;;;;1.27;1.17;;;13.10;99.90;;;;;;5046976;28;20195;-31
2023/01/07 11:20:41;;;;;;;1.03;0.90;;;13.10;99.90;;;;;;5048615;28;20460;-32
2023/01/07 11:23:31;;;;;;;1.27;1.10;;;13.10;99.90;;;;;;5048564;28;20188;-32
2023/01/07 11:26:08;;;;;;;1.10;0.90;;;13.10;99.90;;;;;;5048465;28;20753;-32
2023/01/07 11:28:36;;;;;;;1.37;1.10;;;13.10;99.90;;;;;;5047546;28;20691;-32
2023/01/07 11:31:05;;;;;;;1.60;1.27;;;13.10;99.90;;;;;;5048948;28;20200;-32
2023/01/07 11:33:39;;;;;;;1.50;1.10;;;13.10;99.90;;;;;;5048671;28;20200;-32
2023/01/07 11:36:41;;;;;;;1.93;1.37;;;13.10;99.90;;;;;;5048879;28;20228;-32
2023/01/07 11:39:24;;;;;;;2.20;1.13;;;13.10;99.90;;;;;;5046967;28;20212;-32
2023/01/07 11:45:16;;;;;;;2.00;1.20;;;13.20;99.90;;;;;;5048458;28;20192;-32
2023/01/07 11:47:47;;;;;;;2.53;1.20;;;13.20;99.90;;;;;;5048556;28;20624;-32
2023/01/07 11:50:40;;;;;;;3.07;1.40;;;13.20;99.90;;;;;;5048315;28;20200;-33
2023/01/07 11:53:31;;;;;;;1.03;0.97;;;13.30;99.90;;;;;;5047986;28;20221;-32
2023/01/07 11:56:29;;;;;;;1.83;1.50;;;13.30;99.90;;;;;;5048092;28;20228;-33
2023/01/07 11:59:14;;;;;;;3.47;1.40;;;13.30;99.90;;;;;;5049279;28;20541;-33
2023/01/07 12:01:47;;;;;;;1.60;1.50;;;13.30;99.90;;;;;;5048943;28;20426;-32
2023/01/07 12:04:35;;;;;;;1.93;1.27;;;13.30;99.90;;;;;;5048395;28;20266;-32
2023/01/07 12:07:15;;;;;;;1.60;1.43;;;13.30;99.90;;;;;;5048286;28;20629;-33
2023/01/07 12:09:44;;;;;;;2.43;1.67;;;13.30;99.90;;;;;;5048172;28;20211;-33
2023/01/07 12:12:35;;;;;;;3.00;1.30;;;13.30;99.90;;;;;;5048070;28;20227;-32
2023/01/07 12:15:20;;;;;;;1.57;1.40;;;13.30;99.90;;;;;;5047820;28;20204;-32
2023/01/07 12:18:15;;;;;;;3.93;1.50;;;13.30;99.90;;;;;;5048182;28;20612;-32
2023/01/07 12:20:58;;;;;;;1.53;1.30;;;13.30;99.90;;;;;;5056262;28;20244;-33
2023/01/07 12:23:57;;;;;;;1.60;1.50;;;13.30;99.90;;;;;;5048246;28;20204;-31
2023/01/07 12:26:53;;;;;;;2.63;1.33;;;13.40;99.90;;;;;;5047790;28;20736;-32
2023/01/07 12:29:37;;;;;;;1.50;1.40;;;13.40;99.90;;;;;;5047803;28;20220;-32
2023/01/07 12:32:19;;;;;;;1.40;1.30;;;13.40;99.90;;;;;;5045993;28;20540;-32
2023/01/07 12:34:56;;;;;;;1.30;1.20;;;13.40;99.90;;;;;;5047317;28;20204;-32
2023/01/07 12:38:03;;;;;;;1.60;1.40;;;13.40;99.90;;;;;;5047720;28;20287;-32
2023/01/07 12:41:10;;;;;;;2.27;1.30;;;13.50;99.90;;;;;;5047047;28;20641;-33
2023/01/07 12:43:50;;;;;;;1.50;1.40;;;13.60;99.90;;;;;;5053169;28;20216;-34
2023/01/07 12:46:21;;;;;;;1.47;1.10;;;13.60;99.90;;;;;;5047067;28;20218;-33
2023/01/07 12:49:03;;;;;;;2.07;1.40;;;13.60;99.90;;;;;;5047179;28;20208;-33
2023/01/07 12:51:49;;;;;;;1.77;1.33;;;13.70;99.90;;;;;;5046277;28;20335;-33
2023/01/07 12:54:21;;;;;;;2.40;1.30;;;13.70;99.90;;;;;;5047768;28;20208;-33
2023/01/07 12:56:58;;;;;;;1.50;1.17;;;13.70;99.90;;;;;;5045717;28;20228;-32
2023/01/07 12:59:58;;;;;;;2.47;1.40;;;13.70;99.90;;;;;;5047108;28;20569;-33
2023/01/07 13:02:50;;;;;;;2.57;1.33;;;13.70;99.90;;;;;;5052318;28;20208;-33
2023/01/07 13:05:25;;;;;;;2.47;1.33;;;13.70;99.90;;;;;;5045423;28;20208;-33
2023/01/07 13:08:11;;;;;;;2.30;1.27;;;13.70;99.90;;;;;;5047052;28;20200;-33
2023/01/07 13:10:50;;;;;;;2.07;1.50;;;13.70;99.90;;;;;;5046905;28;20568;-33
2023/01/07 13:13:28;;;;;;;1.30;1.20;;;13.70;99.90;;;;;;5046664;28;20214;-33
2023/01/07 13:16:00;;;;;;;2.03;1.60;;;13.80;99.90;;;;;;5045010;28;20234;-32
2023/01/07 13:18:30;;;;;;;1.57;1.40;;;13.70;99.90;;;;;;5046879;28;20698;-33
2023/01/07 13:21:11;;;;;;;1.30;1.20;;;13.70;99.90;;;;;;5046784;28;20207;-33
2023/01/07 13:23:47;;;;;;;1.60;1.40;;;13.70;99.90;;;;;;5044795;28;20215;-33
2023/01/07 13:26:48;;;;;;;2.17;1.97;;;13.80;99.90;;;;;;5046193;28;20253;-33
2023/01/07 13:29:40;;;;;;;4.43;1.67;;;13.80;99.90;;;;;;5044763;28;20200;-33
2023/01/07 13:32:35;;;;;;;1.60;1.27;;;13.80;99.90;;;;;;5045164;28;20298;-32